Hauptseite
METAR-TAF:

METAR-TAF

Flughäfen :

Toblach, Italien

Breite: 46-44N, Länge: 012-13E, Höhe: 1222 m

Beobachtung

Neuester Wetterbericht von vor 1 Stunde und 15 Minuten, um 18:55 UTC
Wind 2 kt aus unterschiedlichen Richtungen
Temperatur 11°C
Luftfeuchtigkeit 100%
Luftdruck 1009 hPa

METAR: LIVD 301855Z AUTO VRB02KT //// 11/11 Q1009

Zeit: 22:10 (20:10 UTC)


TAF: fehlend

Wetterbeobachtungen und Prognosen von mehr als 4000 Flughäfen (METAR und TAF Bericht).

Die verfügbaren Stationen werden durch gelbe und rote Markierungen auf der Karte dargestellt.

Führen Sie die Maus auf sie, um den Namen der Station zu sehen.

Darauf klicken, um die Beobachtung von Wetterbeobachtungen und Prognosen zu sehen.

Um die Karte zu ändern : klicken Sie auf den grünen Tasten mit einem schwarzen Kreuz Zum Vergrößern, auf den grünen Button mit einem Gedankenstrich zu verkleinern, oder auf die grünen Pfeile für benachbarte Karten.


METAR-TAF: